sensor_id;sensor_type;location;lat;lon;timestamp;P1;durP1;ratioP1;P2;durP2;ratioP2
7177;SDS011;3630;42.146;24.756;2022-07-23T00:00:10;6.97;;;6.30;;
7177;SDS011;3630;42.146;24.756;2022-07-23T00:02:37;7.20;;;6.00;;
7177;SDS011;3630;42.146;24.756;2022-07-23T00:05:04;9.80;;;6.83;;
7177;SDS011;3630;42.146;24.756;2022-07-23T00:07:31;8.10;;;5.90;;
7177;SDS011;3630;42.146;24.756;2022-07-23T00:09:58;6.60;;;5.30;;
7177;SDS011;3630;42.146;24.756;2022-07-23T00:12:26;6.67;;;6.07;;
7177;SDS011;3630;42.146;24.756;2022-07-23T00:14:53;7.33;;;5.67;;
7177;SDS011;3630;42.146;24.756;2022-07-23T00:17:20;6.47;;;5.50;;
7177;SDS011;3630;42.146;24.756;2022-07-23T00:19:47;8.33;;;5.90;;
7177;SDS011;3630;42.146;24.756;2022-07-23T00:22:13;6.23;;;5.63;;
7177;SDS011;3630;42.146;24.756;2022-07-23T00:24:40;10.07;;;5.93;;
7177;SDS011;3630;42.146;24.756;2022-07-23T00:27:07;6.43;;;5.73;;
7177;SDS011;3630;42.146;24.756;2022-07-23T00:29:35;10.63;;;6.20;;
7177;SDS011;3630;42.146;24.756;2022-07-23T00:32:03;10.70;;;7.27;;
7177;SDS011;3630;42.146;24.756;2022-07-23T00:34:30;12.37;;;8.70;;
7177;SDS011;3630;42.146;24.756;2022-07-23T00:36:57;11.83;;;8.90;;
7177;SDS011;3630;42.146;24.756;2022-07-23T00:39:24;11.10;;;9.77;;
7177;SDS011;3630;42.146;24.756;2022-07-23T00:41:51;15.97;;;12.17;;
7177;SDS011;3630;42.146;24.756;2022-07-23T00:44:19;30.10;;;23.40;;
7177;SDS011;3630;42.146;24.756;2022-07-23T00:46:49;27.73;;;22.77;;
7177;SDS011;3630;42.146;24.756;2022-07-23T00:49:18;28.60;;;24.93;;
7177;SDS011;3630;42.146;24.756;2022-07-23T00:51:46;27.90;;;25.00;;
7177;SDS011;3630;42.146;24.756;2022-07-23T00:54:13;27.30;;;22.45;;
7177;SDS011;3630;42.146;24.756;2022-07-23T00:56:41;22.93;;;20.57;;
7177;SDS011;3630;42.146;24.756;2022-07-23T00:59:09;20.17;;;17.30;;
7177;SDS011;3630;42.146;24.756;2022-07-23T01:01:36;16.87;;;14.07;;
7177;SDS011;3630;42.146;24.756;2022-07-23T01:04:04;14.73;;;12.93;;
7177;SDS011;3630;42.146;24.756;2022-07-23T01:06:32;20.53;;;12.30;;
7177;SDS011;3630;42.146;24.756;2022-07-23T01:09:02;16.63;;;11.80;;
7177;SDS011;3630;42.146;24.756;2022-07-23T01:11:29;12.47;;;11.17;;
7177;SDS011;3630;42.146;24.756;2022-07-23T01:13:57;12.53;;;10.60;;
7177;SDS011;3630;42.146;24.756;2022-07-23T01:16:24;12.50;;;11.00;;
7177;SDS011;3630;42.146;24.756;2022-07-23T01:18:51;15.43;;;12.03;;
7177;SDS011;3630;42.146;24.756;2022-07-23T01:21:19;16.47;;;12.67;;
7177;SDS011;3630;42.146;24.756;2022-07-23T01:23:48;14.47;;;12.93;;
7177;SDS011;3630;42.146;24.756;2022-07-23T01:26:15;18.23;;;12.20;;
7177;SDS011;3630;42.146;24.756;2022-07-23T01:28:42;16.00;;;12.07;;
7177;SDS011;3630;42.146;24.756;2022-07-23T01:31:09;14.53;;;13.00;;
7177;SDS011;3630;42.146;24.756;2022-07-23T01:33:36;18.23;;;14.67;;
7177;SDS011;3630;42.146;24.756;2022-07-23T01:36:03;22.63;;;16.77;;
7177;SDS011;3630;42.146;24.756;2022-07-23T01:38:30;16.27;;;14.57;;
7177;SDS011;3630;42.146;24.756;2022-07-23T01:40:58;16.33;;;14.63;;
7177;SDS011;3630;42.146;24.756;2022-07-23T01:43:25;17.73;;;14.23;;
7177;SDS011;3630;42.146;24.756;2022-07-23T01:45:52;17.87;;;13.47;;
7177;SDS011;3630;42.146;24.756;2022-07-23T01:48:19;18.47;;;14.63;;
7177;SDS011;3630;42.146;24.756;2022-07-23T01:50:46;22.53;;;16.73;;
7177;SDS011;3630;42.146;24.756;2022-07-23T01:53:13;22.37;;;17.60;;
7177;SDS011;3630;42.146;24.756;2022-07-23T01:55:40;20.40;;;17.60;;
7177;SDS011;3630;42.146;24.756;2022-07-23T01:58:09;25.13;;;18.77;;
7177;SDS011;3630;42.146;24.756;2022-07-23T02:00:36;22.30;;;18.37;;
7177;SDS011;3630;42.146;24.756;2022-07-23T02:03:03;24.07;;;18.63;;
7177;SDS011;3630;42.146;24.756;2022-07-23T02:05:30;25.03;;;18.17;;
7177;SDS011;3630;42.146;24.756;2022-07-23T02:07:57;21.83;;;17.53;;
7177;SDS011;3630;42.146;24.756;2022-07-23T02:10:24;24.40;;;19.03;;
7177;SDS011;3630;42.146;24.756;2022-07-23T02:12:51;23.13;;;17.83;;
7177;SDS011;3630;42.146;24.756;2022-07-23T02:15:19;23.37;;;19.40;;
7177;SDS011;3630;42.146;24.756;2022-07-23T02:17:46;25.87;;;20.13;;
7177;SDS011;3630;42.146;24.756;2022-07-23T02:20:13;23.00;;;19.60;;
7177;SDS011;3630;42.146;24.756;2022-07-23T02:22:40;24.67;;;19.40;;
7177;SDS011;3630;42.146;24.756;2022-07-23T02:25:07;22.73;;;19.37;;
7177;SDS011;3630;42.146;24.756;2022-07-23T02:27:34;23.67;;;20.10;;
7177;SDS011;3630;42.146;24.756;2022-07-23T02:30:01;24.77;;;19.20;;
7177;SDS011;3630;42.146;24.756;2022-07-23T02:32:30;25.60;;;18.23;;
7177;SDS011;3630;42.146;24.756;2022-07-23T02:34:57;21.70;;;18.93;;
7177;SDS011;3630;42.146;24.756;2022-07-23T02:37:23;26.90;;;18.50;;
7177;SDS011;3630;42.146;24.756;2022-07-23T02:39:50;23.83;;;18.60;;
7177;SDS011;3630;42.146;24.756;2022-07-23T02:42:17;22.00;;;17.90;;
7177;SDS011;3630;42.146;24.756;2022-07-23T02:44:44;21.83;;;17.13;;
7177;SDS011;3630;42.146;24.756;2022-07-23T02:47:11;17.57;;;15.73;;
7177;SDS011;3630;42.146;24.756;2022-07-23T02:49:39;21.97;;;15.63;;
7177;SDS011;3630;42.146;24.756;2022-07-23T02:52:06;19.70;;;15.97;;
7177;SDS011;3630;42.146;24.756;2022-07-23T02:54:33;19.20;;;15.77;;
7177;SDS011;3630;42.146;24.756;2022-07-23T02:56:59;23.67;;;16.07;;
7177;SDS011;3630;42.146;24.756;2022-07-23T02:59:26;15.73;;;14.10;;
7177;SDS011;3630;42.146;24.756;2022-07-23T03:01:53;15.77;;;13.80;;
7177;SDS011;3630;42.146;24.756;2022-07-23T03:04:20;15.27;;;12.77;;
7177;SDS011;3630;42.146;24.756;2022-07-23T03:06:48;19.00;;;12.10;;
7177;SDS011;3630;42.146;24.756;2022-07-23T03:09:15;14.93;;;12.60;;
7177;SDS011;3630;42.146;24.756;2022-07-23T03:11:42;14.97;;;12.40;;
7177;SDS011;3630;42.146;24.756;2022-07-23T03:14:08;16.83;;;11.77;;
7177;SDS011;3630;42.146;24.756;2022-07-23T03:16:38;14.00;;;12.60;;
7177;SDS011;3630;42.146;24.756;2022-07-23T03:19:05;16.83;;;12.47;;
7177;SDS011;3630;42.146;24.756;2022-07-23T03:21:32;14.67;;;12.47;;
7177;SDS011;3630;42.146;24.756;2022-07-23T03:24:00;13.63;;;11.40;;
7177;SDS011;3630;42.146;24.756;2022-07-23T03:26:27;14.50;;;12.97;;
7177;SDS011;3630;42.146;24.756;2022-07-23T03:28:54;16.20;;;12.73;;
7177;SDS011;3630;42.146;24.756;2022-07-23T03:31:21;13.23;;;11.70;;
7177;SDS011;3630;42.146;24.756;2022-07-23T03:33:47;12.73;;;11.20;;
7177;SDS011;3630;42.146;24.756;2022-07-23T03:36:14;15.20;;;11.43;;
7177;SDS011;3630;42.146;24.756;2022-07-23T03:38:41;12.50;;;11.27;;
7177;SDS011;3630;42.146;24.756;2022-07-23T03:41:09;16.50;;;11.27;;
7177;SDS011;3630;42.146;24.756;2022-07-23T03:43:36;17.87;;;11.80;;
7177;SDS011;3630;42.146;24.756;2022-07-23T03:46:03;12.90;;;11.53;;
7177;SDS011;3630;42.146;24.756;2022-07-23T03:48:30;13.17;;;11.33;;
7177;SDS011;3630;42.146;24.756;2022-07-23T03:50:56;12.23;;;11.03;;
7177;SDS011;3630;42.146;24.756;2022-07-23T03:53:23;14.40;;;11.87;;
7177;SDS011;3630;42.146;24.756;2022-07-23T03:55:50;18.93;;;11.20;;
7177;SDS011;3630;42.146;24.756;2022-07-23T03:58:18;11.90;;;10.70;;
7177;SDS011;3630;42.146;24.756;2022-07-23T04:00:45;15.35;;;11.80;;
7177;SDS011;3630;42.146;24.756;2022-07-23T04:03:12;14.40;;;11.97;;
7177;SDS011;3630;42.146;24.756;2022-07-23T04:05:39;14.60;;;11.10;;
7177;SDS011;3630;42.146;24.756;2022-07-23T04:08:06;12.73;;;11.40;;
7177;SDS011;3630;42.146;24.756;2022-07-23T04:10:33;13.77;;;11.53;;
7177;SDS011;3630;42.146;24.756;2022-07-23T04:12:59;15.27;;;11.90;;
7177;SDS011;3630;42.146;24.756;2022-07-23T04:15:27;17.40;;;12.60;;
7177;SDS011;3630;42.146;24.756;2022-07-23T04:17:54;15.37;;;12.43;;
7177;SDS011;3630;42.146;24.756;2022-07-23T04:20:21;16.63;;;13.83;;
7177;SDS011;3630;42.146;24.756;2022-07-23T04:22:48;19.40;;;16.10;;
7177;SDS011;3630;42.146;24.756;2022-07-23T04:25:15;21.20;;;18.20;;
7177;SDS011;3630;42.146;24.756;2022-07-23T04:27:42;24.77;;;18.20;;
7177;SDS011;3630;42.146;24.756;2022-07-23T04:30:09;23.43;;;18.37;;
7177;SDS011;3630;42.146;24.756;2022-07-23T04:32:38;21.50;;;18.23;;
7177;SDS011;3630;42.146;24.756;2022-07-23T04:35:05;20.63;;;18.47;;
7177;SDS011;3630;42.146;24.756;2022-07-23T04:37:32;26.27;;;19.98;;
7177;SDS011;3630;42.146;24.756;2022-07-23T04:39:58;24.97;;;19.33;;
7177;SDS011;3630;42.146;24.756;2022-07-23T04:42:25;22.30;;;17.93;;
7177;SDS011;3630;42.146;24.756;2022-07-23T04:44:52;25.10;;;18.33;;
7177;SDS011;3630;42.146;24.756;2022-07-23T04:47:19;20.50;;;18.20;;
7177;SDS011;3630;42.146;24.756;2022-07-23T04:49:47;25.50;;;19.93;;
7177;SDS011;3630;42.146;24.756;2022-07-23T04:52:14;22.00;;;17.97;;
7177;SDS011;3630;42.146;24.756;2022-07-23T04:54:41;24.33;;;18.70;;
7177;SDS011;3630;42.146;24.756;2022-07-23T04:57:08;25.05;;;21.13;;
7177;SDS011;3630;42.146;24.756;2022-07-23T04:59:34;23.33;;;20.13;;
7177;SDS011;3630;42.146;24.756;2022-07-23T05:02:01;25.77;;;22.03;;
7177;SDS011;3630;42.146;24.756;2022-07-23T05:04:28;26.95;;;23.67;;
7177;SDS011;3630;42.146;24.756;2022-07-23T05:06:57;29.03;;;23.70;;
7177;SDS011;3630;42.146;24.756;2022-07-23T05:09:24;31.30;;;24.80;;
7177;SDS011;3630;42.146;24.756;2022-07-23T05:11:51;30.97;;;25.60;;
7177;SDS011;3630;42.146;24.756;2022-07-23T05:14:18;34.10;;;24.80;;
7177;SDS011;3630;42.146;24.756;2022-07-23T05:16:45;31.53;;;24.63;;
7177;SDS011;3630;42.146;24.756;2022-07-23T05:19:12;29.93;;;26.67;;
7177;SDS011;3630;42.146;24.756;2022-07-23T05:21:39;27.30;;;24.20;;
7177;SDS011;3630;42.146;24.756;2022-07-23T05:24:07;28.47;;;25.53;;
7177;SDS011;3630;42.146;24.756;2022-07-23T05:26:34;22.07;;;19.70;;
7177;SDS011;3630;42.146;24.756;2022-07-23T05:29:01;24.15;;;21.65;;
7177;SDS011;3630;42.146;24.756;2022-07-23T05:31:28;24.43;;;18.47;;
7177;SDS011;3630;42.146;24.756;2022-07-23T05:33:55;19.13;;;15.73;;
7177;SDS011;3630;42.146;24.756;2022-07-23T05:36:21;17.60;;;15.60;;
7177;SDS011;3630;42.146;24.756;2022-07-23T05:38:48;16.83;;;14.23;;
7177;SDS011;3630;42.146;24.756;2022-07-23T05:41:16;19.20;;;14.50;;
7177;SDS011;3630;42.146;24.756;2022-07-23T05:43:43;18.63;;;14.45;;
7177;SDS011;3630;42.146;24.756;2022-07-23T05:46:10;18.93;;;14.67;;
7177;SDS011;3630;42.146;24.756;2022-07-23T05:48:37;16.60;;;15.00;;
7177;SDS011;3630;42.146;24.756;2022-07-23T05:51:04;16.73;;;14.60;;
7177;SDS011;3630;42.146;24.756;2022-07-23T05:53:31;16.63;;;14.70;;
7177;SDS011;3630;42.146;24.756;2022-07-23T05:55:59;17.83;;;14.00;;
7177;SDS011;3630;42.146;24.756;2022-07-23T05:58:27;18.23;;;14.67;;
7177;SDS011;3630;42.146;24.756;2022-07-23T06:00:54;16.27;;;14.68;;
7177;SDS011;3630;42.146;24.756;2022-07-23T06:03:21;18.87;;;14.20;;
7177;SDS011;3630;42.146;24.756;2022-07-23T06:05:47;21.83;;;14.40;;
7177;SDS011;3630;42.146;24.756;2022-07-23T06:08:14;17.90;;;14.05;;
7177;SDS011;3630;42.146;24.756;2022-07-23T06:10:41;18.77;;;13.85;;
7177;SDS011;3630;42.146;24.756;2022-07-23T06:13:08;14.70;;;13.03;;
7177;SDS011;3630;42.146;24.756;2022-07-23T06:15:36;21.63;;;13.90;;
7177;SDS011;3630;42.146;24.756;2022-07-23T06:18:03;17.02;;;13.85;;
7177;SDS011;3630;42.146;24.756;2022-07-23T06:20:30;20.20;;;12.65;;
7177;SDS011;3630;42.146;24.756;2022-07-23T06:22:57;13.57;;;12.05;;
7177;SDS011;3630;42.146;24.756;2022-07-23T06:25:24;15.50;;;12.63;;
7177;SDS011;3630;42.146;24.756;2022-07-23T06:27:51;21.67;;;11.60;;
7177;SDS011;3630;42.146;24.756;2022-07-23T06:30:17;16.23;;;11.48;;
7177;SDS011;3630;42.146;24.756;2022-07-23T06:32:46;16.00;;;12.00;;
7177;SDS011;3630;42.146;24.756;2022-07-23T06:35:13;16.67;;;11.20;;
7177;SDS011;3630;42.146;24.756;2022-07-23T06:37:40;14.55;;;10.98;;
7177;SDS011;3630;42.146;24.756;2022-07-23T06:40:07;14.20;;;11.82;;
7177;SDS011;3630;42.146;24.756;2022-07-23T06:42:34;14.60;;;10.88;;
7177;SDS011;3630;42.146;24.756;2022-07-23T06:45:04;13.75;;;10.90;;
7177;SDS011;3630;42.146;24.756;2022-07-23T06:47:32;13.93;;;11.70;;
7177;SDS011;3630;42.146;24.756;2022-07-23T06:50:00;17.80;;;11.95;;
7177;SDS011;3630;42.146;24.756;2022-07-23T06:52:27;15.15;;;10.70;;
7177;SDS011;3630;42.146;24.756;2022-07-23T06:54:54;14.27;;;10.38;;
7177;SDS011;3630;42.146;24.756;2022-07-23T06:57:21;12.63;;;11.15;;
7177;SDS011;3630;42.146;24.756;2022-07-23T06:59:48;11.45;;;8.77;;
7177;SDS011;3630;42.146;24.756;2022-07-23T07:02:15;12.43;;;9.57;;
7177;SDS011;3630;42.146;24.756;2022-07-23T07:04:41;11.57;;;9.05;;
7177;SDS011;3630;42.146;24.756;2022-07-23T07:07:10;9.40;;;8.50;;
7177;SDS011;3630;42.146;24.756;2022-07-23T07:09:37;13.48;;;8.43;;
7177;SDS011;3630;42.146;24.756;2022-07-23T07:12:04;9.50;;;8.50;;
7177;SDS011;3630;42.146;24.756;2022-07-23T07:14:31;11.05;;;9.15;;
7177;SDS011;3630;42.146;24.756;2022-07-23T07:16:58;14.38;;;9.32;;
7177;SDS011;3630;42.146;24.756;2022-07-23T07:19:25;9.05;;;8.00;;
7177;SDS011;3630;42.146;24.756;2022-07-23T07:21:51;14.32;;;8.95;;
7177;SDS011;3630;42.146;24.756;2022-07-23T07:24:20;10.85;;;7.55;;
7177;SDS011;3630;42.146;24.756;2022-07-23T07:26:47;15.75;;;9.55;;
7177;SDS011;3630;42.146;24.756;2022-07-23T07:29:14;11.27;;;8.75;;
7177;SDS011;3630;42.146;24.756;2022-07-23T07:31:40;8.75;;;7.85;;
7177;SDS011;3630;42.146;24.756;2022-07-23T07:34:07;15.85;;;8.68;;
7177;SDS011;3630;42.146;24.756;2022-07-23T07:36:34;16.35;;;8.07;;
7177;SDS011;3630;42.146;24.756;2022-07-23T07:39:02;11.02;;;7.20;;
7177;SDS011;3630;42.146;24.756;2022-07-23T07:41:31;9.98;;;8.00;;
7177;SDS011;3630;42.146;24.756;2022-07-23T07:43:57;8.13;;;7.25;;
7177;SDS011;3630;42.146;24.756;2022-07-23T07:46:24;12.13;;;7.85;;
7177;SDS011;3630;42.146;24.756;2022-07-23T07:48:52;8.88;;;7.65;;
7177;SDS011;3630;42.146;24.756;2022-07-23T07:51:19;8.32;;;7.45;;
7177;SDS011;3630;42.146;24.756;2022-07-23T07:53:46;9.40;;;8.13;;
7177;SDS011;3630;42.146;24.756;2022-07-23T07:56:13;9.02;;;7.63;;
7177;SDS011;3630;42.146;24.756;2022-07-23T07:58:41;9.90;;;7.43;;
7177;SDS011;3630;42.146;24.756;2022-07-23T08:01:08;14.43;;;7.40;;
7177;SDS011;3630;42.146;24.756;2022-07-23T08:03:35;9.48;;;7.97;;
7177;SDS011;3630;42.146;24.756;2022-07-23T08:06:02;8.82;;;7.47;;
7177;SDS011;3630;42.146;24.756;2022-07-23T08:08:29;12.13;;;8.00;;
7177;SDS011;3630;42.146;24.756;2022-07-23T08:10:56;16.63;;;7.20;;
7177;SDS011;3630;42.146;24.756;2022-07-23T08:13:22;12.57;;;8.25;;
7177;SDS011;3630;42.146;24.756;2022-07-23T08:15:51;28.92;;;9.63;;
7177;SDS011;3630;42.146;24.756;2022-07-23T08:18:18;7.68;;;6.85;;
7177;SDS011;3630;42.146;24.756;2022-07-23T08:20:45;8.98;;;7.05;;
7177;SDS011;3630;42.146;24.756;2022-07-23T08:23:12;11.43;;;7.35;;
7177;SDS011;3630;42.146;24.756;2022-07-23T08:25:39;12.50;;;7.68;;
7177;SDS011;3630;42.146;24.756;2022-07-23T08:28:08;8.05;;;7.35;;
7177;SDS011;3630;42.146;24.756;2022-07-23T08:30:36;22.52;;;8.02;;
7177;SDS011;3630;42.146;24.756;2022-07-23T08:33:06;8.48;;;7.13;;
7177;SDS011;3630;42.146;24.756;2022-07-23T08:35:36;21.38;;;7.40;;
7177;SDS011;3630;42.146;24.756;2022-07-23T08:38:05;13.88;;;6.90;;
7177;SDS011;3630;42.146;24.756;2022-07-23T08:40:34;8.25;;;6.88;;
7177;SDS011;3630;42.146;24.756;2022-07-23T08:43:03;12.75;;;7.43;;
7177;SDS011;3630;42.146;24.756;2022-07-23T08:45:35;8.32;;;6.47;;
7177;SDS011;3630;42.146;24.756;2022-07-23T08:48:07;12.35;;;7.05;;
7177;SDS011;3630;42.146;24.756;2022-07-23T08:50:35;7.13;;;6.35;;
7177;SDS011;3630;42.146;24.756;2022-07-23T08:53:05;7.22;;;6.55;;
7177;SDS011;3630;42.146;24.756;2022-07-23T08:55:33;35.88;;;8.38;;
7177;SDS011;3630;42.146;24.756;2022-07-23T08:58:01;24.95;;;8.00;;
7177;SDS011;3630;42.146;24.756;2022-07-23T09:00:28;9.73;;;7.20;;
7177;SDS011;3630;42.146;24.756;2022-07-23T09:02:56;9.57;;;7.55;;
7177;SDS011;3630;42.146;24.756;2022-07-23T09:05:24;11.32;;;7.65;;
7177;SDS011;3630;42.146;24.756;2022-07-23T09:08:07;9.05;;;7.47;;
7177;SDS011;3630;42.146;24.756;2022-07-23T09:13:29;13.00;;;7.07;;
7177;SDS011;3630;42.146;24.756;2022-07-23T09:16:01;10.85;;;7.10;;
7177;SDS011;3630;42.146;24.756;2022-07-23T09:18:33;12.02;;;7.22;;
7177;SDS011;3630;42.146;24.756;2022-07-23T09:23:53;12.77;;;7.28;;
7177;SDS011;3630;42.146;24.756;2022-07-23T09:26:29;14.52;;;7.32;;
7177;SDS011;3630;42.146;24.756;2022-07-23T09:29:08;12.13;;;6.30;;
7177;SDS011;3630;42.146;24.756;2022-07-23T09:31:43;13.30;;;7.18;;
7177;SDS011;3630;42.146;24.756;2022-07-23T09:34:13;10.20;;;6.13;;
7177;SDS011;3630;42.146;24.756;2022-07-23T09:36:43;10.20;;;6.47;;
7177;SDS011;3630;42.146;24.756;2022-07-23T09:39:11;8.23;;;6.13;;
7177;SDS011;3630;42.146;24.756;2022-07-23T09:41:40;6.93;;;6.25;;
7177;SDS011;3630;42.146;24.756;2022-07-23T09:44:10;12.80;;;6.90;;
7177;SDS011;3630;42.146;24.756;2022-07-23T09:46:42;7.18;;;6.47;;
7177;SDS011;3630;42.146;24.756;2022-07-23T09:49:11;11.93;;;7.85;;
7177;SDS011;3630;42.146;24.756;2022-07-23T09:51:48;8.50;;;5.60;;
7177;SDS011;3630;42.146;24.756;2022-07-23T09:54:26;12.32;;;6.22;;
7177;SDS011;3630;42.146;24.756;2022-07-23T09:56:56;7.60;;;6.05;;
7177;SDS011;3630;42.146;24.756;2022-07-23T09:59:25;6.88;;;6.25;;
7177;SDS011;3630;42.146;24.756;2022-07-23T10:01:53;6.75;;;6.10;;
7177;SDS011;3630;42.146;24.756;2022-07-23T10:04:22;18.20;;;8.40;;
7177;SDS011;3630;42.146;24.756;2022-07-23T10:06:53;9.60;;;5.57;;
7177;SDS011;3630;42.146;24.756;2022-07-23T10:09:22;24.00;;;7.50;;
7177;SDS011;3630;42.146;24.756;2022-07-23T10:11:50;38.15;;;10.57;;
7177;SDS011;3630;42.146;24.756;2022-07-23T10:14:22;9.80;;;5.82;;
7177;SDS011;3630;42.146;24.756;2022-07-23T10:16:50;6.82;;;5.60;;
7177;SDS011;3630;42.146;24.756;2022-07-23T10:19:17;7.38;;;5.57;;
7177;SDS011;3630;42.146;24.756;2022-07-23T10:21:46;10.57;;;5.63;;
7177;SDS011;3630;42.146;24.756;2022-07-23T10:24:20;9.32;;;6.60;;
7177;SDS011;3630;42.146;24.756;2022-07-23T10:26:58;9.90;;;6.28;;
7177;SDS011;3630;42.146;24.756;2022-07-23T10:29:36;7.57;;;5.90;;
7177;SDS011;3630;42.146;24.756;2022-07-23T10:32:16;7.68;;;6.45;;
7177;SDS011;3630;42.146;24.756;2022-07-23T10:34:50;9.73;;;6.03;;
7177;SDS011;3630;42.146;24.756;2022-07-23T10:37:22;11.20;;;6.30;;
7177;SDS011;3630;42.146;24.756;2022-07-23T10:40:12;9.63;;;6.22;;
7177;SDS011;3630;42.146;24.756;2022-07-23T10:42:42;7.60;;;5.82;;
7177;SDS011;3630;42.146;24.756;2022-07-23T10:45:23;8.70;;;6.05;;
7177;SDS011;3630;42.146;24.756;2022-07-23T10:47:52;8.05;;;5.72;;
7177;SDS011;3630;42.146;24.756;2022-07-23T10:50:20;12.20;;;5.85;;
7177;SDS011;3630;42.146;24.756;2022-07-23T10:55:50;9.30;;;6.07;;
7177;SDS011;3630;42.146;24.756;2022-07-23T10:58:19;10.48;;;6.15;;
7177;SDS011;3630;42.146;24.756;2022-07-23T11:00:48;9.40;;;6.00;;
7177;SDS011;3630;42.146;24.756;2022-07-23T11:03:28;9.48;;;6.88;;
7177;SDS011;3630;42.146;24.756;2022-07-23T11:06:02;14.00;;;6.57;;
7177;SDS011;3630;42.146;24.756;2022-07-23T11:08:29;8.48;;;5.60;;
7177;SDS011;3630;42.146;24.756;2022-07-23T11:11:08;10.38;;;5.97;;
7177;SDS011;3630;42.146;24.756;2022-07-23T11:13:44;7.53;;;5.65;;
7177;SDS011;3630;42.146;24.756;2022-07-23T11:16:19;8.70;;;5.93;;
7177;SDS011;3630;42.146;24.756;2022-07-23T11:18:56;12.13;;;5.38;;
7177;SDS011;3630;42.146;24.756;2022-07-23T11:21:42;10.63;;;6.00;;
7177;SDS011;3630;42.146;24.756;2022-07-23T11:24:10;13.65;;;6.85;;
7177;SDS011;3630;42.146;24.756;2022-07-23T11:26:44;9.70;;;5.93;;
7177;SDS011;3630;42.146;24.756;2022-07-23T11:32:14;12.38;;;6.45;;
7177;SDS011;3630;42.146;24.756;2022-07-23T11:34:55;11.45;;;6.05;;
7177;SDS011;3630;42.146;24.756;2022-07-23T11:37:33;14.23;;;6.20;;
7177;SDS011;3630;42.146;24.756;2022-07-23T11:40:03;10.77;;;6.55;;
7177;SDS011;3630;42.146;24.756;2022-07-23T11:42:35;12.13;;;6.85;;
7177;SDS011;3630;42.146;24.756;2022-07-23T11:45:04;12.55;;;6.55;;
7177;SDS011;3630;42.146;24.756;2022-07-23T11:47:32;12.68;;;5.90;;
7177;SDS011;3630;42.146;24.756;2022-07-23T11:50:01;7.35;;;5.60;;
7177;SDS011;3630;42.146;24.756;2022-07-23T11:52:31;12.27;;;6.22;;
7177;SDS011;3630;42.146;24.756;2022-07-23T11:54:59;9.75;;;5.50;;
7177;SDS011;3630;42.146;24.756;2022-07-23T11:57:28;11.50;;;6.10;;
7177;SDS011;3630;42.146;24.756;2022-07-23T12:00:02;12.85;;;6.03;;
7177;SDS011;3630;42.146;24.756;2022-07-23T12:02:32;13.23;;;6.75;;
7177;SDS011;3630;42.146;24.756;2022-07-23T12:04:59;8.93;;;5.75;;
7177;SDS011;3630;42.146;24.756;2022-07-23T12:07:27;9.70;;;6.40;;
7177;SDS011;3630;42.146;24.756;2022-07-23T12:09:56;15.85;;;6.60;;
7177;SDS011;3630;42.146;24.756;2022-07-23T12:12:24;10.07;;;6.13;;
7177;SDS011;3630;42.146;24.756;2022-07-23T12:14:51;11.63;;;6.80;;
7177;SDS011;3630;42.146;24.756;2022-07-23T12:17:21;9.75;;;6.10;;
7177;SDS011;3630;42.146;24.756;2022-07-23T12:19:53;8.48;;;5.82;;
7177;SDS011;3630;42.146;24.756;2022-07-23T12:22:21;8.38;;;5.95;;
7177;SDS011;3630;42.146;24.756;2022-07-23T12:24:52;12.60;;;6.18;;
7177;SDS011;3630;42.146;24.756;2022-07-23T12:27:20;12.07;;;5.95;;
7177;SDS011;3630;42.146;24.756;2022-07-23T12:29:47;11.43;;;6.22;;
7177;SDS011;3630;42.146;24.756;2022-07-23T12:32:19;10.20;;;5.57;;
7177;SDS011;3630;42.146;24.756;2022-07-23T12:34:49;12.30;;;5.90;;
7177;SDS011;3630;42.146;24.756;2022-07-23T12:37:30;11.02;;;5.65;;
7177;SDS011;3630;42.146;24.756;2022-07-23T12:39:59;8.05;;;5.68;;
7177;SDS011;3630;42.146;24.756;2022-07-23T12:42:44;10.50;;;7.38;;
7177;SDS011;3630;42.146;24.756;2022-07-23T12:45:12;11.02;;;6.95;;
7177;SDS011;3630;42.146;24.756;2022-07-23T12:47:53;17.27;;;5.57;;
7177;SDS011;3630;42.146;24.756;2022-07-23T12:50:33;18.38;;;6.95;;
7177;SDS011;3630;42.146;24.756;2022-07-23T12:53:05;10.77;;;6.75;;
7177;SDS011;3630;42.146;24.756;2022-07-23T12:55:33;12.63;;;6.40;;
7177;SDS011;3630;42.146;24.756;2022-07-23T12:58:07;10.25;;;6.05;;
7177;SDS011;3630;42.146;24.756;2022-07-23T13:00:52;12.68;;;6.50;;
7177;SDS011;3630;42.146;24.756;2022-07-23T13:03:23;11.07;;;6.18;;
7177;SDS011;3630;42.146;24.756;2022-07-23T13:05:51;14.25;;;6.00;;
7177;SDS011;3630;42.146;24.756;2022-07-23T13:08:18;10.93;;;6.13;;
7177;SDS011;3630;42.146;24.756;2022-07-23T13:10:45;7.88;;;5.47;;
7177;SDS011;3630;42.146;24.756;2022-07-23T13:13:15;12.10;;;5.88;;
7177;SDS011;3630;42.146;24.756;2022-07-23T13:15:42;11.50;;;6.03;;
7177;SDS011;3630;42.146;24.756;2022-07-23T13:18:09;16.67;;;6.35;;
7177;SDS011;3630;42.146;24.756;2022-07-23T13:20:37;18.17;;;6.93;;
7177;SDS011;3630;42.146;24.756;2022-07-23T13:23:05;12.88;;;6.68;;
7177;SDS011;3630;42.146;24.756;2022-07-23T13:25:32;10.02;;;5.85;;
7177;SDS011;3630;42.146;24.756;2022-07-23T13:27:59;9.18;;;5.88;;
7177;SDS011;3630;42.146;24.756;2022-07-23T13:30:26;12.45;;;6.15;;
7177;SDS011;3630;42.146;24.756;2022-07-23T13:32:53;15.40;;;6.25;;
7177;SDS011;3630;42.146;24.756;2022-07-23T13:35:20;11.30;;;5.40;;
7177;SDS011;3630;42.146;24.756;2022-07-23T13:37:48;11.85;;;6.22;;
7177;SDS011;3630;42.146;24.756;2022-07-23T13:40:15;10.93;;;6.40;;
7177;SDS011;3630;42.146;24.756;2022-07-23T13:42:42;11.40;;;6.30;;
7177;SDS011;3630;42.146;24.756;2022-07-23T13:45:09;7.65;;;5.80;;
7177;SDS011;3630;42.146;24.756;2022-07-23T13:47:36;16.03;;;7.10;;
7177;SDS011;3630;42.146;24.756;2022-07-23T13:50:04;11.13;;;5.95;;
7177;SDS011;3630;42.146;24.756;2022-07-23T13:52:31;8.30;;;6.25;;
7177;SDS011;3630;42.146;24.756;2022-07-23T13:55:00;8.15;;;4.95;;
7177;SDS011;3630;42.146;24.756;2022-07-23T13:57:28;11.98;;;5.93;;
7177;SDS011;3630;42.146;24.756;2022-07-23T13:59:56;11.30;;;6.43;;
7177;SDS011;3630;42.146;24.756;2022-07-23T14:02:23;13.80;;;6.05;;
7177;SDS011;3630;42.146;24.756;2022-07-23T14:04:50;10.80;;;6.00;;
7177;SDS011;3630;42.146;24.756;2022-07-23T14:07:17;11.82;;;6.15;;
7177;SDS011;3630;42.146;24.756;2022-07-23T14:09:45;12.23;;;5.95;;
7177;SDS011;3630;42.146;24.756;2022-07-23T14:12:13;10.23;;;6.07;;
7177;SDS011;3630;42.146;24.756;2022-07-23T14:14:40;10.00;;;5.95;;
7177;SDS011;3630;42.146;24.756;2022-07-23T14:17:08;7.10;;;5.75;;
7177;SDS011;3630;42.146;24.756;2022-07-23T14:19:35;10.93;;;6.03;;
7177;SDS011;3630;42.146;24.756;2022-07-23T14:22:02;12.05;;;6.15;;
7177;SDS011;3630;42.146;24.756;2022-07-23T14:24:29;12.18;;;6.32;;
7177;SDS011;3630;42.146;24.756;2022-07-23T14:26:55;14.88;;;6.93;;
7177;SDS011;3630;42.146;24.756;2022-07-23T14:29:23;11.32;;;6.80;;
7177;SDS011;3630;42.146;24.756;2022-07-23T14:31:50;16.38;;;8.73;;
7177;SDS011;3630;42.146;24.756;2022-07-23T14:34:17;12.27;;;6.70;;
7177;SDS011;3630;42.146;24.756;2022-07-23T14:36:44;11.05;;;5.75;;
7177;SDS011;3630;42.146;24.756;2022-07-23T14:39:11;8.25;;;5.90;;
7177;SDS011;3630;42.146;24.756;2022-07-23T14:41:38;12.05;;;6.15;;
7177;SDS011;3630;42.146;24.756;2022-07-23T14:44:05;8.73;;;6.05;;
7177;SDS011;3630;42.146;24.756;2022-07-23T14:46:33;8.35;;;5.80;;
7177;SDS011;3630;42.146;24.756;2022-07-23T14:49:00;9.25;;;5.90;;
7177;SDS011;3630;42.146;24.756;2022-07-23T14:51:27;7.25;;;6.13;;
7177;SDS011;3630;42.146;24.756;2022-07-23T14:53:54;13.52;;;6.95;;
7177;SDS011;3630;42.146;24.756;2022-07-23T14:56:21;10.75;;;6.03;;
7177;SDS011;3630;42.146;24.756;2022-07-23T14:58:48;11.40;;;5.80;;
7177;SDS011;3630;42.146;24.756;2022-07-23T15:01:14;11.27;;;6.18;;
7177;SDS011;3630;42.146;24.756;2022-07-23T15:03:43;9.77;;;6.03;;